Latest Coastal Weather Observations for Low Head

IDT60701

Issued at 8:03 am EDT Wednesday 22 February 2017 (issued every 10 minutes, with the page automatically refreshed every 10 minutes)

About coastal observations | Map of coastal stations | Coastal observations for TAS | Marine services | Other Formats
Station Details ID: 091293 Name: LOW HEAD Lat: -41.05 Lon: 146.79 Height: 3.0 m
Data from the previous 72 hours. | See also: Recent months at Low Head
Date/Time
EDT
Temp
°C
Wind Pressure Rain since
9am
mm
Weather Cloud Vis
km
Sea
Height
m
Swell
Dir  Spd
kts
Gust
kts
hPa Trend Height
m
Period
s
Dir
22/08:00am 13.8 SSE 7 9 1018.3 - 0.0 - - - - - - -
22/07:30am 13.3 SE 6 7 1018.1 - 0.0 - - - - - - -
22/07:00am 13.2 E 8 9 1017.9 - 0.0 - - - - - - -
22/06:30am 12.9 E 7 9 1018.0 - 0.0 - - - - - - -
22/06:00am 13.1 E 8 9 1017.8 - 0.0 - - - - - - -
22/05:30am 13.2 E 9 10 1017.7 - 0.0 - - - - - - -
22/05:00am 13.3 E 9 11 1017.8 - 0.0 - - - - - - -
22/04:30am 13.0 E 9 10 1018.1 - 0.0 - - - - - - -
22/04:00am 12.9 E 9 11 1018.3 - 0.0 - - - - - - -
22/03:30am 13.0 E 9 10 1018.4 - 0.0 - - - - - - -
22/03:00am 12.9 E 9 11 1018.6 - 0.0 - - - - - - -
22/02:30am 13.2 E 7 9 1018.5 - 0.0 - - - - - - -
22/02:00am 13.3 E 8 10 1018.5 - 0.0 - - - - - - -
22/01:30am 13.5 E 7 9 1018.8 - 0.0 - - - - - - -
22/01:00am 14.1 E 6 7 1019.0 - 0.0 - - - - - - -
22/12:30am 14.2 E 7 8 1019.0 - 0.0 - - - - - - -
22/12:00am 14.7 E 7 9 1018.9 - 0.0 - - - - - - -
 
Date/Time
EDT
Temp
°C
Wind Pressure Rain since
9am
mm
Weather Cloud Vis
km
Sea
Height
m
Swell
Dir  Spd
kts
Gust
kts
hPa Trend Height
m
Period
s
Dir
21/11:30pm 16.7 NNW 8 11 1018.9 - 0.0 - - - - - - -
21/11:00pm 16.8 NW 13 15 1019.1 - 0.0 - - - - - - -
21/10:30pm 16.7 NNW 11 13 1018.9 - 0.0 - - - - - - -
21/10:00pm 16.9 NNW 9 11 1018.9 - 0.0 - - - - - - -
21/09:30pm 16.8 NW 10 11 1018.6 - 0.0 - - - - - - -
21/09:00pm 16.9 NW 12 14 1018.5 - 0.0 - - - - - - -
21/08:30pm 16.9 NW 14 16 1018.2 - 0.0 - - - - - - -
21/08:00pm 17.2 NW 15 17 1017.9 - 0.0 - - - - - - -
21/07:30pm 17.5 NW 14 16 1017.6 - 0.0 - - - - - - -
21/07:00pm 17.8 NW 17 19 1017.2 - 0.0 - - - - - - -
21/06:30pm 18.1 NW 16 19 1017.1 - 0.0 - - - - - - -
21/06:00pm 18.7 NW 15 19 1016.8 - 0.0 - - - - - - -
21/05:30pm 18.7 NW 16 19 1017.1 - 0.0 - - - - - - -
21/05:00pm 19.2 NW 17 20 1017.2 - 0.0 - - - - - - -
21/04:30pm 19.5 NW 16 19 1017.3 - 0.0 - - - - - - -
21/04:00pm 19.7 WNW 15 18 1017.3 - 0.0 - - - - - - -
21/03:30pm 19.9 WNW 15 18 1017.6 - 0.0 - - - - - - -
21/03:00pm 19.9 NW 15 18 1017.8 - 0.0 - - - - - - -
21/02:30pm 19.6 NW 13 15 1017.9 - 0.0 - - - - - - -
21/02:00pm 19.3 NW 14 16 1018.2 - 0.0 - - - - - - -
21/01:30pm 18.9 WNW 13 15 1018.2 - 0.0 - - - - - - -
21/01:00pm 19.0 NW 13 14 1018.1 - 0.0 - - - - - - -
21/12:30pm 18.9 NW 10 12 1018.1 - 0.0 - - - - - - -
21/12:00pm 19.2 NW 6 11 1018.3 - 0.0 - - - - - - -
21/11:30am 17.4 S 6 7 1018.3 - 0.0 - - - - - - -
21/11:00am 16.9 S 9 11 1018.4 - 0.0 - - - - - - -
21/10:30am 16.3 S 12 13 1018.1 - 0.0 - - - - - - -
21/10:00am 15.5 SSE 13 16 1018.0 - 0.0 - - - - - - -
21/09:30am 14.4 S 12 15 1018.1 - 0.0 - - - - - - -
21/09:00am 13.4 S 12 14 1017.6 - 0.0 - - - - - - -
21/08:30am 12.6 S 12 13 1017.3 - 0.0 - - - - - - -
21/08:00am 12.2 S 10 12 1016.9 - 0.0 - - - - - - -
21/07:30am 11.2 SSE 10 12 1016.3 - 0.0 - - - - - - -
21/07:00am 11.2 S 9 11 1015.9 - 0.0 - - - - - - -
21/06:30am 11.4 SSE 8 11 1015.5 - 0.0 - - - - - - -
21/06:00am 11.5 SSE 8 9 1015.0 - 0.0 - - - - - - -
21/05:30am 10.9 SSE 7 9 1014.5 - 0.0 - - - - - - -
21/05:00am 11.7 S 7 9 1014.5 - 0.0 - - - - - - -
21/04:30am 12.8 S 8 10 1014.2 - 0.0 - - - - - - -
21/04:00am 12.1 SSE 6 7 1014.1 - 0.0 - - - - - - -
21/03:30am 12.5 SSE 5 6 1014.0 - 0.0 - - - - - - -
21/03:00am 13.2 S 6 8 1013.8 - 0.0 - - - - - - -
21/02:30am 12.7 S 7 8 1013.2 - 0.0 - - - - - - -
21/02:00am 13.2 SSW 7 8 1013.1 - 0.0 - - - - - - -
21/01:30am 13.6 S 9 11 1013.1 - 0.0 - - - - - - -
21/01:00am 13.6 SSW 9 11 1013.0 - 0.0 - - - - - - -
21/12:30am 13.7 SSW 9 10 1012.9 - 0.0 - - - - - - -
21/12:00am 14.4 S 8 11 1012.6 - 0.0 - - - - - - -
 
Date/Time
EDT
Temp
°C
Wind Pressure Rain since
9am
mm
Weather Cloud Vis
km
Sea
Height
m
Swell
Dir  Spd
kts
Gust
kts
hPa Trend Height
m
Period
s
Dir
20/11:30pm 14.0 S 6 8 1012.3 - 0.0 - - - - - - -
20/11:00pm 13.9 SSE 8 10 1012.0 - 0.0 - - - - - - -
20/10:30pm 14.8 S 9 11 1011.7 - 0.0 - - - - - - -
20/10:00pm 15.3 SSW 9 10 1011.3 - 0.0 - - - - - - -
20/09:30pm 15.3 SSE 7 8 1010.8 - 0.0 - - - - - - -
20/09:00pm 17.1 WSW 7 9 1010.5 - 0.0 - - - - - - -
20/08:30pm 17.2 WNW 7 7 1009.9 - 0.0 - - - - - - -
20/08:00pm 17.6 WNW 7 8 1009.6 - 0.0 - - - - - - -
20/07:30pm 18.1 WNW 9 11 1009.2 - 0.0 - - - - - - -
20/07:00pm 18.8 WNW 9 11 1008.8 - 0.0 - - - - - - -
20/06:30pm 18.9 WNW 10 11 1008.5 - 0.0 - - - - - - -
20/06:00pm 19.0 WNW 12 13 1008.1 - 0.0 - - - - - - -
20/05:30pm 18.4 WNW 14 16 1007.8 - 0.0 - - - - - - -
20/05:00pm 18.5 WNW 16 18 1007.7 - 0.0 - - - - - - -
20/04:30pm 18.1 WNW 17 19 1007.6 - 0.0 - - - - - - -
20/04:00pm 18.2 NW 15 18 1007.5 - 0.0 - - - - - - -
20/03:30pm 18.4 NW 15 17 1007.3 - 0.0 - - - - - - -
20/03:00pm 17.3 NW 17 19 1007.3 - 0.0 - - - - - - -
20/02:30pm 17.1 WNW 16 17 1007.4 - 0.0 - - - - - - -
20/02:00pm 17.2 WNW 16 18 1007.2 - 0.0 - - - - - - -
20/01:30pm 17.5 WNW 17 19 1007.1 - 0.0 - - - - - - -
20/01:00pm 17.8 WNW 16 19 1007.1 - 0.0 - - - - - - -
20/12:30pm 17.8 WNW 13 16 1007.3 - 0.0 - - - - - - -
20/12:00pm 17.9 WNW 6 9 1007.4 - 0.0 - - - - - - -
20/11:30am 15.5 W 5 7 1007.6 - 0.0 - - - - - - -
20/11:00am 14.1 SSW 9 11 1007.5 - 0.0 - - - - - - -
20/10:30am 13.3 S 13 15 1007.6 - 0.0 - - - - - - -
20/10:00am 12.8 S 13 17 1007.4 - 0.0 - - - - - - -
20/09:30am 11.8 S 15 18 1007.1 - 0.0 - - - - - - -
20/09:00am 11.8 S 15 18 1006.9 - 1.4 - - - - - - -
20/08:30am 11.1 S 16 18 1006.6 - 1.4 - - - - - - -
20/08:00am 10.6 S 15 19 1006.3 - 1.4 - - - - - - -
20/07:30am 10.1 S 15 18 1006.2 - 1.4 - - - - - - -
20/07:00am 10.1 SSE 14 17 1006.2 - 1.4 - - - - - - -
20/06:30am 10.3 S 15 19 1006.1 - 1.4 - - - - - - -
20/06:00am 10.1 SSE 13 16 1005.9 - 1.4 - - - - - - -
20/05:30am 9.5 SSE 11 14 1005.7 - 1.4 - - - - - - -
20/05:00am 9.5 SSE 9 14 1005.7 - 1.4 - - - - - - -
20/04:30am 9.4 SSE 11 13 1005.6 - 1.4 - - - - - - -
20/04:00am 9.7 SSE 11 13 1005.7 - 1.4 - - - - - - -
20/03:30am 10.5 S 11 13 1005.5 - 1.4 - - - - - - -
20/03:00am 9.9 S 12 14 1005.3 - 1.4 - - - - - - -
20/02:30am 10.1 SSE 8 10 1005.5 - 1.4 - - - - - - -
20/02:00am 10.1 SSE 8 10 1005.7 - 1.4 - - - - - - -
20/01:30am 10.6 SSE 8 10 1005.7 - 1.4 - - - - - - -
20/01:00am 10.6 S 8 10 1005.6 - 1.4 - - - - - - -
20/12:30am 11.0 S 7 8 1005.4 - 1.4 - - - - - - -
20/12:00am 11.0 S 5 6 1005.9 - 1.4 Recent precip. - - - - - -
 
Date/Time
EDT
Temp
°C
Wind Pressure Rain since
9am
mm
Weather Cloud Vis
km
Sea
Height
m
Swell
Dir  Spd
kts
Gust
kts
hPa Trend Height
m
Period
s
Dir
19/11:30pm 11.5 S 2 5 1005.9 - 1.2 - - - - - - -
19/11:00pm 11.7 SSE 7 9 1006.2 - 0.6 - - - - - - -
19/10:30pm 11.7 SSE 6 7 1006.2 - 0.6 - - - - - - -
19/10:00pm 12.7 ESE 5 6 1006.1 - 0.6 - - - - - - -
19/09:30pm 14.0 N 1 5 1006.0 - 0.6 - - - - - - -
19/09:00pm 14.2 NNW 5 7 1005.6 - 0.6 - - - - - - -
19/08:30pm 14.2 NNW 5 7 1005.3 - 0.6 - - - - - - -
19/08:00pm 14.2 N 6 8 1005.0 - 0.6 - - - - - - -
19/07:30pm 14.6 N 7 9 1004.7 - 0.6 - - - - - - -
19/07:00pm 14.8 N 8 11 1004.5 - 0.6 - - - - - - -
19/06:30pm 15.0 N 8 10 1004.3 - 0.6 - - - - - - -
19/06:00pm 15.4 N 7 10 1004.0 - 0.6 - - - - - - -
19/05:30pm 15.4 N 7 10 1003.9 - 0.6 - - - - - - -
19/05:00pm 15.4 N 8 11 1003.9 - 0.6 - - - - - - -
19/04:30pm 14.8 NNE 9 12 1003.9 - 0.6 - - - - - - -
19/04:00pm 16.3 N 7 9 1004.0 - 0.6 - - - - - - -
19/03:30pm 15.4 N 6 8 1004.1 - 0.6 - - - - - - -
19/03:00pm 14.2 NNE 7 9 1004.4 - 0.6 Recent precip. - - - - - -
19/02:30pm 13.4 N 9 11 1004.5 - 0.4 - - - - - - -
19/02:00pm 14.9 NNW 8 11 1004.4 - 0.0 - - - - - - -
19/01:30pm 16.1 N 5 10 1004.4 - 0.0 - - - - - - -
19/01:00pm 16.1 N 8 10 1004.7 - 0.0 - - - - - - -
19/12:30pm 15.8 NW 6 9 1004.7 - 0.0 - - - - - - -
19/12:00pm 15.7 NW 8 11 1004.9 - 0.0 - - - - - - -
19/11:30am 15.9 WNW 8 11 1005.0 - 0.0 - - - - - - -
19/11:00am 15.2 WNW 8 11 1005.1 - 0.0 - - - - - - -
19/10:30am 14.5 W 10 13 1004.9 - 0.0 - - - - - - -
19/10:00am 14.0 WNW 9 10 1004.8 - 0.0 - - - - - - -
19/09:30am 13.5 W 11 14 1004.5 - 0.0 - - - - - - -
19/09:00am 13.0 WNW 13 18 1004.3 - 5.6 - - - - - - -
19/08:30am 13.1 WNW 13 15 1004.1 - 5.6 - - - - - - -

Other Formats:

Comma delimited format used in spreadsheet applications
http://www.bom.gov.au/fwo/IDT60701/IDT60701.95964.axf

JavaScript Object Notation format (JSON) in row-major order
http://www.bom.gov.au/fwo/IDT60701/IDT60701.95964.json